Time;durP1;ratioP1;P1;durP2;ratioP2;P2;SDS_P1;SDS_P2;PMS_P1;PMS_P2;Temp;Humidity;BMP_temperature;BMP_pressure;BME280_temperature;BME280_humidity;BME280_pressure;Samples;Min_cycle;Max_cycle;Signal;HPM_P1;HPM_P2
2023/06/01 00:00:00;;;;;;;15.32;5.80;;;;;;;;;;5094695;28;20040;-72
2023/06/01 00:02:26;;;;;;;12.05;5.20;;;;;;;;;;5101195;28;20340;-72
2023/06/01 00:04:52;;;;;;;9.85;4.72;;;;;;;;;;5093036;28;20047;-72
2023/06/01 00:07:19;;;;;;;11.20;4.88;;;;;;;;;;5095505;28;20043;-72
2023/06/01 00:09:45;;;;;;;11.55;4.63;;;;;;;;;;5097247;28;20511;-72
2023/06/01 00:12:11;;;;;;;18.27;5.70;;;;;;;;;;5098658;28;20513;-72
2023/06/01 00:14:37;;;;;;;16.08;5.85;;;;;;;;;;5091664;28;20055;-72
2023/06/01 00:17:05;;;;;;;14.82;5.30;;;;;;;;;;5094225;28;20051;-72
2023/06/01 00:19:31;;;;;;;14.40;5.00;;;;;;;;;;5092093;28;20167;-72
2023/06/01 00:21:58;;;;;;;12.38;4.50;;;;;;;;;;5085793;28;20040;-72
2023/06/01 00:24:25;;;;;;;14.27;5.63;;;;;;;;;;5070768;28;20059;-72
2023/06/01 00:26:52;;;;;;;14.13;5.20;;;;;;;;;;5089443;28;20499;-72
2023/06/01 00:29:18;;;;;;;11.70;4.68;;;;;;;;;;5049800;27;1136369;-72
2023/06/01 00:31:44;;;;;;;16.13;6.05;;;;;;;;;;5091628;27;20138;-72
2023/06/01 00:34:11;;;;;;;11.80;4.20;;;;;;;;;;5090073;27;20040;-72
2023/06/01 00:36:38;;;;;;;13.20;4.22;;;;;;;;;;5092610;27;20059;-72
2023/06/01 00:39:04;;;;;;;11.13;4.05;;;;;;;;;;5098677;27;20118;-72
2023/06/01 00:41:30;;;;;;;14.05;5.00;;;;;;;;;;5124630;27;20091;-72
2023/06/01 00:43:56;;;;;;;16.60;4.53;;;;;;;;;;5085583;27;20040;-72
2023/06/01 00:46:23;;;;;;;9.43;4.30;;;;;;;;;;5086588;27;20043;-72
2023/06/01 00:48:50;;;;;;;13.05;4.93;;;;;;;;;;5099760;27;20043;-73
2023/06/01 00:51:17;;;;;;;12.27;4.53;;;;;;;;;;5095514;27;20130;-72
2023/06/01 00:53:43;;;;;;;11.52;4.70;;;;;;;;;;5097992;27;20040;-72
2023/06/01 00:56:11;;;;;;;12.50;5.20;;;;;;;;;;5097899;27;20055;-72
2023/06/01 00:58:38;;;;;;;14.77;5.75;;;;;;;;;;5096367;27;20054;-72
2023/06/01 01:01:04;;;;;;;15.63;6.38;;;;;;;;;;5099626;27;20088;-72
2023/06/01 01:03:32;;;;;;;12.43;5.35;;;;;;;;;;5091080;27;20044;-72
2023/06/01 01:06:05;;;;;;;11.82;4.85;;;;;;;;;;5099277;27;20861;-72
2023/06/01 01:08:35;;;;;;;14.23;5.25;;;;;;;;;;5098541;27;20651;-72
2023/06/01 01:11:07;;;;;;;12.48;4.88;;;;;;;;;;5101172;27;20078;-72
2023/06/01 01:13:51;;;;;;;17.52;5.75;;;;;;;;;;5097523;27;20116;-72
2023/06/01 01:16:24;;;;;;;12.88;5.10;;;;;;;;;;5099903;27;20044;-72
2023/06/01 01:18:54;;;;;;;19.52;7.28;;;;;;;;;;5096816;27;20043;-72
2023/06/01 01:21:27;;;;;;;11.48;5.47;;;;;;;;;;5102915;27;20058;-72
2023/06/01 01:23:54;;;;;;;;;;;;;;;;;;5097618;27;20055;-72
2023/06/01 01:26:25;;;;;;;15.93;6.00;;;;;;;;;;5099266;27;19915;-72
2023/06/01 01:28:53;;;;;;;17.10;6.18;;;;;;;;;;5096047;27;20043;-72
2023/06/01 01:31:22;;;;;;;13.23;4.85;;;;;;;;;;5091472;27;20112;-72
2023/06/01 01:33:51;;;;;;;15.18;5.57;;;;;;;;;;5106922;27;20051;-72
2023/06/01 01:36:17;;;;;;;18.38;6.13;;;;;;;;;;5098766;27;20051;-72
2023/06/01 01:38:43;;;;;;;13.60;5.80;;;;;;;;;;5094211;27;20040;-72
2023/06/01 01:41:10;;;;;;;12.32;5.93;;;;;;;;;;5098150;27;20047;-72
2023/06/01 01:43:36;;;;;;;15.10;5.80;;;;;;;;;;5098824;27;20058;-72
2023/06/01 01:46:11;;;;;;;14.02;5.90;;;;;;;;;;5082789;28;20047;-72
2023/06/01 01:48:41;;;;;;;12.20;6.30;;;;;;;;;;5094477;27;20043;-72
2023/06/01 01:51:11;;;;;;;15.65;6.85;;;;;;;;;;5091099;27;20736;-72
2023/06/01 01:53:39;;;;;;;14.90;5.90;;;;;;;;;;5088487;27;21669;-72
2023/06/01 01:56:06;;;;;;;11.93;5.30;;;;;;;;;;5103989;27;20067;-72
2023/06/01 01:58:33;;;;;;;14.10;5.25;;;;;;;;;;5119777;27;20047;-72
2023/06/01 02:01:00;;;;;;;30.77;7.78;;;;;;;;;;5087518;28;20495;-72
2023/06/01 02:03:26;;;;;;;15.18;5.97;;;;;;;;;;5089569;27;20043;-72
2023/06/01 02:05:52;;;;;;;14.60;5.72;;;;;;;;;;5087508;27;20445;-72
2023/06/01 02:08:19;;;;;;;16.10;5.20;;;;;;;;;;5088281;27;20440;-72
2023/06/01 02:10:45;;;;;;;12.07;5.60;;;;;;;;;;5087312;28;20051;-72
2023/06/01 02:13:11;;;;;;;15.25;5.15;;;;;;;;;;5086354;28;20039;-72
2023/06/01 02:15:37;;;;;;;12.07;5.82;;;;;;;;;;5091764;27;20039;-72
2023/06/01 02:18:03;;;;;;;12.20;4.20;;;;;;;;;;5104646;27;20040;-72
2023/06/01 02:20:30;;;;;;;12.00;4.60;;;;;;;;;;5088855;28;20078;-72
2023/06/01 02:22:56;;;;;;;13.50;4.68;;;;;;;;;;5121495;27;20036;-72
2023/06/01 02:25:22;;;;;;;12.50;4.65;;;;;;;;;;5086686;28;20071;-72
2023/06/01 02:27:48;;;;;;;13.32;4.25;;;;;;;;;;5119022;27;20890;-72
2023/06/01 02:30:14;;;;;;;7.97;3.85;;;;;;;;;;5084375;28;20062;-72
2023/06/01 02:32:44;;;;;;;11.02;4.57;;;;;;;;;;5086473;28;20133;-72
2023/06/01 02:35:11;;;;;;;12.88;4.90;;;;;;;;;;5088476;28;20044;-72
2023/06/01 02:37:37;;;;;;;14.43;4.95;;;;;;;;;;5089588;28;20187;-72
2023/06/01 02:40:03;;;;;;;9.93;4.68;;;;;;;;;;5099518;27;20036;-72
2023/06/01 02:42:29;;;;;;;13.10;5.22;;;;;;;;;;5082974;28;20051;-72
2023/06/01 02:44:56;;;;;;;12.68;5.60;;;;;;;;;;5089200;28;20043;-72
2023/06/01 02:47:22;;;;;;;11.73;5.00;;;;;;;;;;5090080;28;20044;-72
2023/06/01 02:49:48;;;;;;;11.27;5.38;;;;;;;;;;5077497;28;20120;-73
2023/06/01 02:52:14;;;;;;;15.32;4.43;;;;;;;;;;5125801;27;20126;-72
2023/06/01 02:54:40;;;;;;;11.18;4.47;;;;;;;;;;5092891;28;20036;-70
2023/06/01 02:57:06;;;;;;;7.30;3.00;;;;;;;;;;5089351;28;20055;-72
2023/06/01 02:59:33;;;;;;;7.20;3.35;;;;;;;;;;5126101;27;20039;-72
2023/06/01 03:01:59;;;;;;;12.13;4.13;;;;;;;;;;5100375;28;20049;-72
2023/06/01 03:04:28;;;;;;;9.80;3.78;;;;;;;;;;5085767;28;20654;-72
2023/06/01 03:06:56;;;;;;;11.50;3.75;;;;;;;;;;5096003;28;20051;-72
2023/06/01 03:09:22;;;;;;;9.52;3.17;;;;;;;;;;5087808;28;20161;-72
2023/06/01 03:11:48;;;;;;;11.00;3.92;;;;;;;;;;5089707;28;20395;-73
2023/06/01 03:14:14;;;;;;;8.40;3.60;;;;;;;;;;5118800;27;20546;-72
2023/06/01 03:16:41;;;;;;;10.50;4.13;;;;;;;;;;5095486;28;20692;-72
2023/06/01 03:19:07;;;;;;;8.77;3.58;;;;;;;;;;5121255;27;20047;-72
2023/06/01 03:21:33;;;;;;;13.73;3.85;;;;;;;;;;5086970;27;21744;-72
2023/06/01 03:23:59;;;;;;;8.50;3.15;;;;;;;;;;5090529;27;20518;-72
2023/06/01 03:26:26;;;;;;;9.75;3.83;;;;;;;;;;5105666;27;20047;-72
2023/06/01 03:28:53;;;;;;;13.38;4.82;;;;;;;;;;5089503;27;20056;-72
2023/06/01 03:31:19;;;;;;;8.98;3.85;;;;;;;;;;5089938;27;20050;-72
2023/06/01 03:33:45;;;;;;;16.45;4.18;;;;;;;;;;5092936;27;20062;-72
2023/06/01 03:36:12;;;;;;;12.25;4.30;;;;;;;;;;5088190;27;20130;-72
2023/06/01 03:38:38;;;;;;;10.15;3.60;;;;;;;;;;5107262;27;20056;-72
2023/06/01 03:41:04;;;;;;;16.98;4.80;;;;;;;;;;5093103;27;20043;-72
2023/06/01 03:43:31;;;;;;;13.63;4.18;;;;;;;;;;5095698;27;20143;-72
2023/06/01 03:45:57;;;;;;;8.77;3.30;;;;;;;;;;5093704;27;20058;-72
2023/06/01 03:48:23;;;;;;;13.60;3.97;;;;;;;;;;5109093;27;20054;-72
2023/06/01 03:50:49;;;;;;;10.55;4.22;;;;;;;;;;5118400;27;20047;-72
2023/06/01 03:53:15;;;;;;;21.13;5.72;;;;;;;;;;5089097;27;20100;-72
2023/06/01 03:55:42;;;;;;;9.27;4.47;;;;;;;;;;5105844;27;20047;-72
2023/06/01 03:58:08;;;;;;;12.15;4.70;;;;;;;;;;5093328;27;22174;-72
2023/06/01 04:00:34;;;;;;;10.40;4.72;;;;;;;;;;5092469;27;20508;-72
2023/06/01 04:03:04;;;;;;;16.23;4.28;;;;;;;;;;5093737;27;20044;-72
2023/06/01 04:05:30;;;;;;;15.02;4.40;;;;;;;;;;5092134;27;20487;-72
2023/06/01 04:07:56;;;;;;;10.60;4.15;;;;;;;;;;5123684;27;20051;-72
2023/06/01 04:10:22;;;;;;;10.90;4.65;;;;;;;;;;5088637;27;20052;-72
2023/06/01 04:12:49;;;;;;;8.55;3.80;;;;;;;;;;5085266;27;20039;-72
2023/06/01 04:15:16;;;;;;;10.00;3.72;;;;;;;;;;5104286;27;20116;-72
2023/06/01 04:17:43;;;;;;;13.02;3.95;;;;;;;;;;5093047;27;20051;-72
2023/06/01 04:20:10;;;;;;;8.50;3.22;;;;;;;;;;5086942;27;20036;-72
2023/06/01 04:22:37;;;;;;;12.18;3.97;;;;;;;;;;5095968;27;20079;-72
2023/06/01 04:25:07;;;;;;;10.32;3.83;;;;;;;;;;5123051;27;20058;-72
2023/06/01 04:27:36;;;;;;;9.52;3.38;;;;;;;;;;5122091;27;20066;-72
2023/06/01 04:30:05;;;;;;;10.45;3.40;;;;;;;;;;5087958;27;20230;-72
2023/06/01 04:32:32;;;;;;;12.57;5.05;;;;;;;;;;5123078;27;20040;-72
2023/06/01 04:34:59;;;;;;;8.15;3.05;;;;;;;;;;5120601;27;20542;-72
2023/06/01 04:37:26;;;;;;;8.90;3.63;;;;;;;;;;5087373;28;20507;-72
2023/06/01 04:39:52;;;;;;;10.00;3.78;;;;;;;;;;5087545;27;20047;-72
2023/06/01 04:42:18;;;;;;;13.43;4.40;;;;;;;;;;5102893;27;20039;-72
2023/06/01 04:44:49;;;;;;;10.52;3.45;;;;;;;;;;5095016;27;20040;-72
2023/06/01 04:47:17;;;;;;;10.52;3.67;;;;;;;;;;5091363;27;20044;-71
2023/06/01 04:49:43;;;;;;;13.18;3.70;;;;;;;;;;5121935;27;20051;-72
2023/06/01 04:52:10;;;;;;;13.68;4.55;;;;;;;;;;5136438;27;20146;-72
2023/06/01 04:54:36;;;;;;;14.25;4.28;;;;;;;;;;5101914;28;20039;-71
2023/06/01 04:57:05;;;;;;;12.18;3.90;;;;;;;;;;5104591;27;20050;-72
2023/06/01 04:59:32;;;;;;;6.22;2.80;;;;;;;;;;5104721;27;20213;-73
2023/06/01 05:01:58;;;;;;;7.78;3.42;;;;;;;;;;5100705;28;20174;-70
2023/06/01 05:04:25;;;;;;;10.50;3.70;;;;;;;;;;5103913;27;21232;-72
2023/06/01 05:06:51;;;;;;;8.93;3.67;;;;;;;;;;5098383;27;20040;-73
2023/06/01 05:09:18;;;;;;;8.00;3.35;;;;;;;;;;5100919;27;20202;-72
2023/06/01 05:11:44;;;;;;;10.75;3.33;;;;;;;;;;5105826;27;20437;-73
2023/06/01 05:14:10;;;;;;;7.43;4.00;;;;;;;;;;5104488;27;20500;-73
2023/06/01 05:16:36;;;;;;;9.90;3.97;;;;;;;;;;5109058;27;20458;-74
2023/06/01 05:19:03;;;;;;;13.02;4.22;;;;;;;;;;5110525;27;20063;-74
2023/06/01 05:21:31;;;;;;;10.18;4.60;;;;;;;;;;5113162;27;20062;-73
2023/06/01 05:23:57;;;;;;;16.13;4.30;;;;;;;;;;5109578;27;20038;-73
2023/06/01 05:26:24;;;;;;;10.85;4.45;;;;;;;;;;5106113;27;20048;-73
2023/06/01 05:28:50;;;;;;;9.57;4.88;;;;;;;;;;5106086;27;20411;-73
2023/06/01 05:31:16;;;;;;;18.70;5.55;;;;;;;;;;5108204;27;20055;-73
2023/06/01 05:33:42;;;;;;;12.13;5.47;;;;;;;;;;5098396;27;20042;-74
2023/06/01 05:36:10;;;;;;;11.45;4.03;;;;;;;;;;5109584;27;20499;-74
2023/06/01 05:38:36;;;;;;;13.38;4.53;;;;;;;;;;5093868;27;20039;-75
2023/06/01 05:41:03;;;;;;;10.40;3.90;;;;;;;;;;5083972;27;20752;-75
2023/06/01 05:43:29;;;;;;;11.60;3.42;;;;;;;;;;5107319;27;20039;-75
2023/06/01 05:45:55;;;;;;;10.80;3.78;;;;;;;;;;5110420;27;20067;-75
2023/06/01 05:48:21;;;;;;;13.30;3.53;;;;;;;;;;5112141;27;20115;-76
2023/06/01 05:50:47;;;;;;;9.93;3.60;;;;;;;;;;5108764;27;20167;-75
2023/06/01 05:53:13;;;;;;;15.23;3.75;;;;;;;;;;5114014;27;20043;-75
2023/06/01 05:55:40;;;;;;;6.35;3.00;;;;;;;;;;5108614;27;20120;-75
2023/06/01 05:58:06;;;;;;;8.98;3.40;;;;;;;;;;5095959;27;20893;-75
2023/06/01 06:00:35;;;;;;;11.07;3.53;;;;;;;;;;5096708;27;20048;-75
2023/06/01 06:03:01;;;;;;;7.95;3.60;;;;;;;;;;5094735;27;20047;-75
2023/06/01 06:05:28;;;;;;;10.68;3.35;;;;;;;;;;5095875;27;20532;-73
2023/06/01 06:07:54;;;;;;;10.85;3.33;;;;;;;;;;5097946;28;20044;-74
2023/06/01 06:10:20;;;;;;;10.18;3.03;;;;;;;;;;5109604;27;20042;-74
2023/06/01 06:12:47;;;;;;;10.02;3.20;;;;;;;;;;5109363;27;20048;-74
2023/06/01 06:15:13;;;;;;;13.35;3.97;;;;;;;;;;5116101;27;20497;-74
2023/06/01 06:17:39;;;;;;;12.05;3.72;;;;;;;;;;5103621;28;20118;-74
2023/06/01 06:20:07;;;;;;;8.85;3.08;;;;;;;;;;5098563;28;20646;-73
2023/06/01 06:22:33;;;;;;;9.23;3.53;;;;;;;;;;5114448;28;20039;-74
2023/06/01 06:24:59;;;;;;;11.10;3.85;;;;;;;;;;5113280;28;20044;-74
2023/06/01 06:27:26;;;;;;;16.88;3.83;;;;;;;;;;5150862;27;20131;-74
2023/06/01 06:29:52;;;;;;;10.65;3.03;;;;;;;;;;5113068;28;20047;-75
2023/06/01 06:32:19;;;;;;;11.35;3.65;;;;;;;;;;5109770;28;20134;-75
2023/06/01 06:34:46;;;;;;;13.77;3.50;;;;;;;;;;5111421;28;20044;-75
2023/06/01 06:37:12;;;;;;;9.50;3.13;;;;;;;;;;5106501;28;20041;-79
2023/06/01 06:39:38;;;;;;;9.00;3.67;;;;;;;;;;5109529;28;20035;-78
2023/06/01 06:42:05;;;;;;;10.15;3.30;;;;;;;;;;5113991;28;20047;-79
2023/06/01 06:44:31;;;;;;;7.57;3.00;;;;;;;;;;5121952;27;20126;-78
2023/06/01 06:47:00;;;;;;;9.13;2.90;;;;;;;;;;5112570;28;20394;-79
2023/06/01 06:49:26;;;;;;;6.28;2.40;;;;;;;;;;5109123;28;20121;-77
2023/06/01 06:51:52;;;;;;;4.82;2.00;;;;;;;;;;5103434;28;20086;-75
2023/06/01 06:54:19;;;;;;;5.95;2.45;;;;;;;;;;5105375;27;20088;-74
2023/06/01 06:56:45;;;;;;;5.75;2.40;;;;;;;;;;5098226;27;20128;-77
2023/06/01 06:59:11;;;;;;;5.57;1.83;;;;;;;;;;5115419;27;20884;-78
2023/06/01 07:01:37;;;;;;;6.05;1.77;;;;;;;;;;5112522;27;20051;-77
2023/06/01 07:04:05;;;;;;;5.53;1.70;;;;;;;;;;5104359;27;20074;-76
2023/06/01 07:06:33;;;;;;;5.43;1.20;;;;;;;;;;5101537;27;20104;-75
2023/06/01 07:09:00;;;;;;;4.53;1.50;;;;;;;;;;5104031;27;20059;-74
2023/06/01 07:11:26;;;;;;;5.88;1.40;;;;;;;;;;5110865;27;20052;-75
2023/06/01 07:13:53;;;;;;;4.50;1.83;;;;;;;;;;5114956;27;20400;-75
2023/06/01 07:16:19;;;;;;;5.45;1.60;;;;;;;;;;5107929;27;20554;-75
2023/06/01 07:18:45;;;;;;;4.30;1.40;;;;;;;;;;5090879;27;20556;-75
2023/06/01 07:21:11;;;;;;;4.40;1.67;;;;;;;;;;5111127;27;20039;-75
2023/06/01 07:23:38;;;;;;;6.13;1.90;;;;;;;;;;5094420;27;20143;-75
2023/06/01 07:26:04;;;;;;;5.88;1.45;;;;;;;;;;5125013;27;20515;-75
2023/06/01 07:28:32;;;;;;;6.70;1.98;;;;;;;;;;5108329;27;20062;-75
2023/06/01 07:30:58;;;;;;;8.13;2.53;;;;;;;;;;5110399;27;20043;-74
2023/06/01 07:33:25;;;;;;;6.65;2.47;;;;;;;;;;5113078;27;20048;-74
2023/06/01 07:35:53;;;;;;;8.88;2.33;;;;;;;;;;5112690;27;20044;-76
2023/06/01 07:38:21;;;;;;;7.63;2.28;;;;;;;;;;5102857;27;20052;-75
2023/06/01 07:40:48;;;;;;;5.57;1.95;;;;;;;;;;5117512;27;20067;-74
2023/06/01 07:43:15;;;;;;;10.43;2.95;;;;;;;;;;5108701;27;20134;-75
2023/06/01 07:45:41;;;;;;;5.28;1.95;;;;;;;;;;5116070;27;20405;-74
2023/06/01 07:48:08;;;;;;;6.40;2.13;;;;;;;;;;5113984;27;20444;-74
2023/06/01 07:50:36;;;;;;;11.23;2.28;;;;;;;;;;5113340;27;20082;-75
2023/06/01 07:53:02;;;;;;;12.95;2.50;;;;;;;;;;5146930;27;20131;-75
2023/06/01 07:55:29;;;;;;;7.75;2.67;;;;;;;;;;5112545;27;20039;-75
2023/06/01 07:57:55;;;;;;;25.88;5.03;;;;;;;;;;5148048;27;20059;-75
2023/06/01 08:00:22;;;;;;;10.13;2.80;;;;;;;;;;5115942;27;20175;-75
2023/06/01 08:02:48;;;;;;;10.32;3.45;;;;;;;;;;5103514;27;20174;-75
2023/06/01 08:05:17;;;;;;;8.77;2.90;;;;;;;;;;5114304;27;20534;-74
2023/06/01 08:07:44;;;;;;;8.93;3.13;;;;;;;;;;5106761;27;20135;-73
2023/06/01 08:10:10;;;;;;;9.02;2.38;;;;;;;;;;5110805;27;20175;-73
2023/06/01 08:12:36;;;;;;;7.32;2.47;;;;;;;;;;5116735;27;20078;-74
2023/06/01 08:15:03;;;;;;;8.43;2.65;;;;;;;;;;5111509;27;20053;-74
2023/06/01 08:17:30;;;;;;;9.07;3.00;;;;;;;;;;5119803;27;20051;-74
2023/06/01 08:19:56;;;;;;;15.48;4.45;;;;;;;;;;5113805;27;20374;-74
2023/06/01 08:22:23;;;;;;;11.20;3.72;;;;;;;;;;5115383;27;20039;-74
2023/06/01 08:24:51;;;;;;;14.80;3.78;;;;;;;;;;5110216;27;20070;-74
2023/06/01 08:27:19;;;;;;;17.25;3.60;;;;;;;;;;5119375;27;20051;-74
2023/06/01 08:29:47;;;;;;;11.90;3.83;;;;;;;;;;5109337;27;20430;-74
2023/06/01 08:32:13;;;;;;;13.15;4.28;;;;;;;;;;5120583;27;20113;-74
2023/06/01 08:34:40;;;;;;;14.55;3.88;;;;;;;;;;5126048;27;20091;-74
2023/06/01 08:37:06;;;;;;;12.15;3.92;;;;;;;;;;5108310;27;20052;-74
2023/06/01 08:39:32;;;;;;;11.82;3.22;;;;;;;;;;5122282;27;20078;-74
2023/06/01 08:41:59;;;;;;;13.50;3.38;;;;;;;;;;5124071;27;20374;-74
2023/06/01 08:44:28;;;;;;;13.15;2.95;;;;;;;;;;5124494;27;20088;-74
2023/06/01 08:46:55;;;;;;;14.25;3.50;;;;;;;;;;5121134;27;20057;-73
2023/06/01 08:49:22;;;;;;;13.27;3.83;;;;;;;;;;5108533;27;20118;-74
2023/06/01 08:51:49;;;;;;;11.32;4.13;;;;;;;;;;5121503;27;20618;-74
2023/06/01 08:54:16;;;;;;;12.88;4.25;;;;;;;;;;5121602;27;20039;-73
2023/06/01 08:56:42;;;;;;;8.68;3.40;;;;;;;;;;5127080;27;20051;-74
2023/06/01 08:59:10;;;;;;;13.00;3.47;;;;;;;;;;5124702;27;20097;-73
2023/06/01 09:01:38;;;;;;;11.13;3.30;;;;;;;;;;5117404;27;20050;-74
2023/06/01 09:04:04;;;;;;;10.38;3.30;;;;;;;;;;5121981;27;20082;-74
2023/06/01 09:06:30;;;;;;;14.02;4.15;;;;;;;;;;5122205;27;20333;-74
2023/06/01 09:08:57;;;;;;;10.48;2.70;;;;;;;;;;5108649;27;20027;-74
2023/06/01 09:11:26;;;;;;;12.23;2.85;;;;;;;;;;5126775;27;20049;-74
2023/06/01 09:13:52;;;;;;;13.25;3.15;;;;;;;;;;5121360;27;20050;-74
2023/06/01 09:16:19;;;;;;;14.43;2.75;;;;;;;;;;5123290;27;20095;-74
2023/06/01 09:18:53;;;;;;;17.13;3.78;;;;;;;;;;5125459;27;20049;-74
2023/06/01 09:21:20;;;;;;;16.90;3.60;;;;;;;;;;5123525;27;20079;-74
2023/06/01 09:23:47;;;;;;;12.10;3.03;;;;;;;;;;5123778;27;20099;-74
2023/06/01 09:26:14;;;;;;;12.15;3.40;;;;;;;;;;5122294;27;20036;-74
2023/06/01 09:28:54;;;;;;;9.23;2.80;;;;;;;;;;5115204;27;20055;-74
2023/06/01 09:31:37;;;;;;;12.60;3.15;;;;;;;;;;5153198;27;20039;-74
2023/06/01 09:34:04;;;;;;;8.88;2.92;;;;;;;;;;5122686;27;20042;-72
2023/06/01 09:36:30;;;;;;;9.73;2.97;;;;;;;;;;5101268;27;20043;-74
2023/06/01 09:39:03;;;;;;;12.25;3.05;;;;;;;;;;5112751;27;20043;-74
2023/06/01 09:41:44;;;;;;;7.13;2.60;;;;;;;;;;5131775;27;20431;-74
2023/06/01 09:44:10;;;;;;;8.50;2.47;;;;;;;;;;5113985;27;20423;-74
2023/06/01 09:46:47;;;;;;;11.63;2.80;;;;;;;;;;5108192;27;20171;-74
2023/06/01 09:49:19;;;;;;;11.02;2.90;;;;;;;;;;5104185;27;20127;-74
2023/06/01 09:51:45;;;;;;;9.50;2.75;;;;;;;;;;5112686;27;20035;-75
2023/06/01 09:54:21;;;;;;;11.48;2.88;;;;;;;;;;5106618;27;20119;-75
2023/06/01 09:56:48;;;;;;;7.97;2.63;;;;;;;;;;5118136;27;20051;-75
2023/06/01 09:59:14;;;;;;;7.47;2.80;;;;;;;;;;5107758;27;20535;-75
2023/06/01 10:01:41;;;;;;;11.95;3.47;;;;;;;;;;5104768;27;20122;-75
2023/06/01 10:04:07;;;;;;;10.55;3.00;;;;;;;;;;5101999;28;20127;-74
2023/06/01 10:06:36;;;;;;;8.90;2.50;;;;;;;;;;5112218;27;20162;-74
2023/06/01 10:09:04;;;;;;;10.07;3.10;;;;;;;;;;5105846;27;20055;-74
2023/06/01 10:11:31;;;;;;;11.55;2.90;;;;;;;;;;5104416;27;20054;-74
2023/06/01 10:13:58;;;;;;;10.25;2.85;;;;;;;;;;5108565;27;20097;-74
2023/06/01 10:16:24;;;;;;;12.40;3.78;;;;;;;;;;5114281;27;20062;-74
2023/06/01 10:18:51;;;;;;;11.48;3.33;;;;;;;;;;5106659;27;20043;-74
2023/06/01 10:21:18;;;;;;;7.70;3.10;;;;;;;;;;5111453;28;20043;-74
2023/06/01 10:23:45;;;;;;;12.55;3.20;;;;;;;;;;5108151;27;20047;-74
2023/06/01 10:26:14;;;;;;;8.52;2.90;;;;;;;;;;5144628;27;20132;-75
2023/06/01 10:28:41;;;;;;;16.77;3.60;;;;;;;;;;5104395;27;20406;-74
2023/06/01 10:31:26;;;;;;;10.10;3.13;;;;;;;;;;5110469;27;20138;-74
2023/06/01 10:33:53;;;;;;;10.05;3.28;;;;;;;;;;5117274;27;20090;-75
2023/06/01 10:36:19;;;;;;;12.18;3.83;;;;;;;;;;5106461;27;20104;-74
2023/06/01 10:38:46;;;;;;;10.70;3.50;;;;;;;;;;5107207;27;20032;-74
2023/06/01 10:41:27;;;;;;;9.82;3.25;;;;;;;;;;5137368;27;20130;-74
2023/06/01 10:43:53;;;;;;;10.35;3.20;;;;;;;;;;5107774;27;20044;-74
2023/06/01 10:46:37;;;;;;;10.88;3.03;;;;;;;;;;5105763;27;20123;-75
2023/06/01 10:49:04;;;;;;;9.85;2.88;;;;;;;;;;5104458;27;20495;-74
2023/06/01 10:51:30;;;;;;;11.52;3.08;;;;;;;;;;5105166;27;20075;-74
2023/06/01 10:54:16;;;;;;;6.97;2.30;;;;;;;;;;5106449;27;20043;-75
2023/06/01 10:56:42;;;;;;;10.38;2.63;;;;;;;;;;5109191;27;20380;-74
2023/06/01 10:59:09;;;;;;;9.65;2.60;;;;;;;;;;5110078;27;20510;-74
2023/06/01 11:01:36;;;;;;;11.82;2.50;;;;;;;;;;5105054;27;20031;-74
2023/06/01 11:04:03;;;;;;;9.45;2.08;;;;;;;;;;5109646;27;20071;-82
2023/06/01 11:06:31;;;;;;;12.73;2.92;;;;;;;;;;5104404;27;20479;-74
2023/06/01 11:08:59;;;;;;;10.18;3.13;;;;;;;;;;5108587;27;20617;-75
2023/06/01 11:11:45;;;;;;;7.68;2.97;;;;;;;;;;5129601;27;20054;-76
2023/06/01 11:14:12;;;;;;;10.00;2.55;;;;;;;;;;5105358;27;20043;-74
2023/06/01 11:16:38;;;;;;;10.30;2.60;;;;;;;;;;5103823;27;20491;-72
2023/06/01 11:19:06;;;;;;;7.80;2.45;;;;;;;;;;5136232;27;20075;-73
2023/06/01 11:21:37;;;;;;;6.13;2.10;;;;;;;;;;5099695;27;20390;-74
2023/06/01 11:24:06;;;;;;;7.47;2.53;;;;;;;;;;5111709;27;20105;-74
2023/06/01 11:26:33;;;;;;;9.88;2.88;;;;;;;;;;5109831;27;20499;-75
2023/06/01 11:29:05;;;;;;;10.05;2.50;;;;;;;;;;5107466;27;20181;-81
2023/06/01 11:31:36;;;;;;;9.13;2.45;;;;;;;;;;5107155;27;21512;-75
2023/06/01 11:34:03;;;;;;;8.15;2.10;;;;;;;;;;5109247;27;20043;-71
2023/06/01 11:36:29;;;;;;;6.45;1.60;;;;;;;;;;5116535;27;20039;-75
2023/06/01 11:38:56;;;;;;;7.15;2.35;;;;;;;;;;5103747;27;20046;-75
2023/06/01 11:41:23;;;;;;;7.47;2.20;;;;;;;;;;5102312;27;20607;-74
2023/06/01 11:43:57;;;;;;;7.90;2.03;;;;;;;;;;5145203;27;20075;-75
2023/06/01 11:46:24;;;;;;;8.43;2.42;;;;;;;;;;5120356;27;20059;-74
2023/06/01 11:49:02;;;;;;;5.80;2.50;;;;;;;;;;5113440;27;20108;-75
2023/06/01 11:51:30;;;;;;;11.15;2.55;;;;;;;;;;5111244;27;20632;-75
2023/06/01 11:53:56;;;;;;;9.13;2.40;;;;;;;;;;5118170;27;20054;-74
2023/06/01 11:56:30;;;;;;;7.72;2.47;;;;;;;;;;5106977;27;20039;-74
2023/06/01 11:58:58;;;;;;;9.73;2.65;;;;;;;;;;5090362;27;20048;-75
2023/06/01 12:01:24;;;;;;;8.45;2.80;;;;;;;;;;5106570;27;20050;-75
2023/06/01 12:03:51;;;;;;;11.52;2.95;;;;;;;;;;5109245;27;20040;-74
2023/06/01 12:06:22;;;;;;;8.48;2.80;;;;;;;;;;5108164;27;20050;-75
2023/06/01 12:08:50;;;;;;;11.57;3.38;;;;;;;;;;5112071;27;20158;-75
2023/06/01 12:11:18;;;;;;;10.32;2.55;;;;;;;;;;5106684;27;20079;-74
2023/06/01 12:13:44;;;;;;;13.10;3.40;;;;;;;;;;5108694;27;20063;-75
2023/06/01 12:16:10;;;;;;;13.93;3.40;;;;;;;;;;5108470;27;20031;-75
2023/06/01 12:18:36;;;;;;;12.75;2.70;;;;;;;;;;5107794;27;20391;-75
2023/06/01 12:21:09;;;;;;;7.85;2.53;;;;;;;;;;5137107;27;20054;-75
2023/06/01 12:23:35;;;;;;;8.45;2.10;;;;;;;;;;5115397;27;20040;-73
2023/06/01 12:26:01;;;;;;;10.38;2.78;;;;;;;;;;5104107;27;20047;-72
2023/06/01 12:28:29;;;;;;;7.35;2.95;;;;;;;;;;5102111;27;20047;-73
2023/06/01 12:31:12;;;;;;;10.55;3.13;;;;;;;;;;5102340;27;20122;-72
2023/06/01 12:33:39;;;;;;;15.82;3.15;;;;;;;;;;5108928;27;20040;-73
2023/06/01 12:36:06;;;;;;;7.40;2.45;;;;;;;;;;5102812;27;20054;-72
2023/06/01 12:38:37;;;;;;;14.43;3.25;;;;;;;;;;5104445;27;20077;-73
2023/06/01 12:41:07;;;;;;;10.60;2.55;;;;;;;;;;5104666;27;20110;-72
2023/06/01 12:43:34;;;;;;;10.25;2.80;;;;;;;;;;5099198;27;20051;-72
2023/06/01 12:46:02;;;;;;;10.30;3.20;;;;;;;;;;5151125;27;20043;-72
2023/06/01 12:48:36;;;;;;;8.73;3.05;;;;;;;;;;5113736;27;20032;-72
2023/06/01 12:51:03;;;;;;;14.15;2.88;;;;;;;;;;5113384;27;20046;-72
2023/06/01 12:53:29;;;;;;;12.05;3.60;;;;;;;;;;5118330;27;20035;-72
2023/06/01 12:55:55;;;;;;;7.43;3.03;;;;;;;;;;5109940;27;20115;-72
2023/06/01 12:58:22;;;;;;;9.77;3.00;;;;;;;;;;5113947;27;20055;-72
2023/06/01 13:00:48;;;;;;;10.13;3.75;;;;;;;;;;5108824;27;20063;-72
2023/06/01 13:03:15;;;;;;;11.57;3.65;;;;;;;;;;5108808;27;20039;-72
2023/06/01 13:05:45;;;;;;;13.18;3.25;;;;;;;;;;5111835;27;20066;-72
2023/06/01 13:08:12;;;;;;;11.95;3.20;;;;;;;;;;5110784;27;20044;-72
2023/06/01 13:10:38;;;;;;;10.90;2.72;;;;;;;;;;5112147;27;20050;-72
2023/06/01 13:13:06;;;;;;;9.90;3.42;;;;;;;;;;5102576;27;20092;-75
2023/06/01 13:15:32;;;;;;;10.65;2.80;;;;;;;;;;5135773;27;20082;-76
2023/06/01 13:17:58;;;;;;;14.77;3.25;;;;;;;;;;5096750;27;20056;-74
2023/06/01 13:20:24;;;;;;;10.70;2.90;;;;;;;;;;5082140;28;20039;-72
2023/06/01 13:22:50;;;;;;;9.63;2.35;;;;;;;;;;5101024;27;20138;-74
2023/06/01 13:25:17;;;;;;;6.07;1.75;;;;;;;;;;5100842;27;20075;-74
2023/06/01 13:27:43;;;;;;;8.40;2.25;;;;;;;;;;5105314;27;20116;-73
2023/06/01 13:30:10;;;;;;;6.50;2.05;;;;;;;;;;5121683;27;20078;-74
2023/06/01 13:32:36;;;;;;;10.30;2.20;;;;;;;;;;5103666;27;20071;-73
2023/06/01 13:35:02;;;;;;;7.22;2.20;;;;;;;;;;5086729;28;20036;-73
2023/06/01 13:37:28;;;;;;;6.40;2.75;;;;;;;;;;5103266;27;20130;-74
2023/06/01 13:39:55;;;;;;;4.97;1.75;;;;;;;;;;5104320;27;20044;-73
2023/06/01 13:42:21;;;;;;;7.40;1.80;;;;;;;;;;5101552;27;20548;-76
2023/06/01 13:44:47;;;;;;;6.63;1.98;;;;;;;;;;5096698;27;20045;-74
2023/06/01 13:47:15;;;;;;;5.93;1.80;;;;;;;;;;5100088;27;20123;-74
2023/06/01 13:49:42;;;;;;;9.02;2.58;;;;;;;;;;5102981;27;20040;-73
2023/06/01 13:52:08;;;;;;;6.78;1.67;;;;;;;;;;5098340;27;20055;-77
2023/06/01 13:54:35;;;;;;;7.20;2.00;;;;;;;;;;5105487;27;20466;-76
2023/06/01 13:57:03;;;;;;;5.00;1.40;;;;;;;;;;5112258;27;20047;-76
2023/06/01 13:59:30;;;;;;;5.95;1.70;;;;;;;;;;5110315;27;20166;-76
2023/06/01 14:01:57;;;;;;;4.63;1.50;;;;;;;;;;5090749;27;20066;-77
2023/06/01 14:04:23;;;;;;;10.52;2.28;;;;;;;;;;5105302;27;20036;-77
2023/06/01 14:06:50;;;;;;;6.53;1.67;;;;;;;;;;5110403;27;20078;-76
2023/06/01 14:09:17;;;;;;;5.95;1.50;;;;;;;;;;5114999;27;20143;-77
2023/06/01 14:11:43;;;;;;;4.72;1.65;;;;;;;;;;5103877;27;20054;-76
2023/06/01 14:14:09;;;;;;;7.45;1.73;;;;;;;;;;5106277;27;20406;-76
2023/06/01 14:16:36;;;;;;;8.95;1.73;;;;;;;;;;5105037;27;20075;-76
2023/06/01 14:19:03;;;;;;;6.32;1.20;;;;;;;;;;5112100;27;20043;-77
2023/06/01 14:21:30;;;;;;;4.25;1.52;;;;;;;;;;5089076;28;20061;-76
2023/06/01 14:23:57;;;;;;;6.93;2.25;;;;;;;;;;5137627;27;20052;-76
2023/06/01 14:26:23;;;;;;;5.57;2.20;;;;;;;;;;5138094;27;20039;-77
2023/06/01 14:28:49;;;;;;;6.38;1.75;;;;;;;;;;5136395;27;20066;-76
2023/06/01 14:31:16;;;;;;;14.27;2.40;;;;;;;;;;5110759;28;20075;-77
2023/06/01 14:33:42;;;;;;;7.30;2.40;;;;;;;;;;5118585;28;20496;-76
2023/06/01 14:36:09;;;;;;;8.82;2.50;;;;;;;;;;5117756;27;20450;-77